Time;durP1;ratioP1;P1;durP2;ratioP2;P2;SDS_P1;SDS_P2;PMS_P1;PMS_P2;Temp;Humidity;BMP_temperature;BMP_pressure;BME280_temperature;BME280_humidity;BME280_pressure;Samples;Min_cycle;Max_cycle;Signal;HPM_P1;HPM_P2
2022/04/20 00:02:03;;;;;;;8.38;4.83;;;;;;;6.38;75.66;100418.88;1613087;88;25851;-74
2022/04/20 00:04:29;;;;;;;7.33;4.80;;;;;;;6.34;75.84;100421.53;1612600;88;28309;-74
2022/04/20 00:06:55;;;;;;;7.05;4.87;;;;;;;6.34;76.02;100417.55;1601669;88;26512;-74
2022/04/20 00:09:21;;;;;;;5.40;4.40;;;;;;;6.33;76.09;100414.53;1604027;87;25835;-74
2022/04/20 00:11:47;;;;;;;10.00;5.40;;;;;;;6.33;76.48;100417.72;1604883;87;26582;-74
2022/04/20 00:14:14;;;;;;;6.25;4.80;;;;;;;6.34;76.19;100417.55;1610167;88;25831;-74
2022/04/20 00:16:40;;;;;;;5.53;4.72;;;;;;;6.33;76.52;100415.86;1600426;88;27485;-74
2022/04/20 00:19:06;;;;;;;7.10;5.12;;;;;;;6.35;76.45;100408.55;1565341;91;25977;-74
2022/04/20 00:21:32;;;;;;;7.03;5.22;;;;;;;6.35;76.64;100407.22;1565536;91;25812;-74
2022/04/20 00:23:58;;;;;;;6.85;5.00;;;;;;;6.37;76.78;100409.73;1565897;90;26606;-74
2022/04/20 00:26:25;;;;;;;8.03;5.90;;;;;;;6.38;77.32;100414.89;1565742;91;25810;-74
2022/04/20 00:28:51;;;;;;;8.53;5.78;;;;;;;6.37;76.89;100407.08;1565970;91;27496;-74
2022/04/20 00:31:18;;;;;;;7.53;5.30;;;;;;;6.36;77.11;100407.56;1565486;91;25443;-73
2022/04/20 00:33:45;;;;;;;9.58;5.90;;;;;;;6.37;77.47;100404.42;1565635;91;25975;-74
2022/04/20 00:36:12;;;;;;;8.48;5.22;;;;;;;6.36;77.39;100402.25;1565580;91;25860;-74
2022/04/20 00:38:39;;;;;;;7.50;5.40;;;;;;;6.38;77.35;100399.41;1565829;91;26461;-74
2022/04/20 00:41:06;;;;;;;7.17;5.53;;;;;;;6.39;77.75;100396.61;1593737;89;27484;-74
2022/04/20 00:43:32;;;;;;;9.28;5.90;;;;;;;6.38;77.55;100396.27;1584582;89;25919;-74
2022/04/20 00:46:00;;;;;;;8.18;5.83;;;;;;;6.42;77.54;100395.42;1593329;89;25839;-74
2022/04/20 00:48:27;;;;;;;7.20;6.00;;;;;;;6.45;77.51;100393.78;1606276;88;26468;-74
2022/04/20 00:50:54;;;;;;;9.83;6.80;;;;;;;6.48;77.72;100392.13;1602015;88;25757;-74
2022/04/20 00:53:20;;;;;;;8.15;6.22;;;;;;;6.45;77.64;100388.45;1603313;88;27489;-74
2022/04/20 00:55:48;;;;;;;9.30;6.28;;;;;;;6.47;77.61;100379.31;1601357;88;25322;-74
2022/04/20 00:58:14;;;;;;;11.10;6.95;;;;;;;6.48;77.89;100374.84;1581555;90;26036;-74
2022/04/20 01:00:40;;;;;;;9.38;6.35;;;;;;;6.47;77.93;100366.50;1565921;91;25769;-74
2022/04/20 01:03:07;;;;;;;9.08;6.60;;;;;;;6.47;78.15;100364.69;1541605;91;25954;-74
2022/04/20 01:05:35;;;;;;;10.60;6.70;;;;;;;6.47;78.13;100367.84;1562151;91;27485;-74
2022/04/20 01:08:21;;;;;;;8.05;6.22;;;;;;;6.44;78.42;100361.50;1571217;90;26293;-74
2022/04/20 01:10:56;;;;;;;10.48;6.75;;;;;;;6.40;78.93;100370.81;1592141;88;25892;-74
2022/04/20 01:13:37;;;;;;;8.80;6.45;;;;;;;6.36;79.13;100362.84;1528570;91;25810;-74
2022/04/20 01:16:11;;;;;;;9.38;6.25;;;;;;;6.33;79.30;100364.52;1564830;90;25760;-74
2022/04/20 01:18:45;;;;;;;8.28;6.47;;;;;;;6.30;79.70;100370.98;1554841;90;27526;-74
2022/04/20 01:21:30;;;;;;;9.73;7.15;;;;;;;6.27;79.68;100358.50;1576059;90;25793;-74
2022/04/20 01:23:58;;;;;;;9.13;6.15;;;;;;;6.28;79.65;100351.70;1569116;90;26103;-74
2022/04/20 01:26:33;;;;;;;10.03;6.62;;;;;;;6.31;79.83;100355.87;1550421;90;25800;-74
2022/04/20 01:29:18;;;;;;;10.00;7.12;;;;;;;6.31;80.44;100347.38;1582274;90;25963;-74
2022/04/20 01:31:47;;;;;;;8.78;6.30;;;;;;;6.29;80.08;100349.89;1577854;90;27454;-75
2022/04/20 01:34:18;;;;;;;;;;;;;;;6.30;80.31;100339.08;1577040;90;25895;-74
2022/04/20 01:36:44;;;;;;;9.38;6.58;;;;;;;6.31;80.51;100335.40;1562171;90;26525;-74
2022/04/20 01:39:11;;;;;;;8.93;5.58;;;;;;;6.30;80.65;100345.72;1570420;90;26587;-74
2022/04/20 01:41:37;;;;;;;11.18;7.15;;;;;;;6.30;80.92;100340.41;1579406;90;25864;-74
2022/04/20 01:44:04;;;;;;;8.28;6.47;;;;;;;6.29;80.73;100344.56;1585319;90;28307;-74
2022/04/20 01:46:41;;;;;;;8.78;7.35;;;;;;;6.27;80.86;100335.89;1521407;93;25883;-74
2022/04/20 01:49:10;;;;;;;8.03;6.92;;;;;;;6.29;80.93;100325.42;1578465;90;25877;-74
2022/04/20 01:51:47;;;;;;;10.72;6.90;;;;;;;6.30;81.15;100318.28;1551850;90;26681;-74
2022/04/20 01:54:15;;;;;;;11.22;7.40;;;;;;;6.29;81.25;100308.66;1577488;90;26311;-74
2022/04/20 01:56:43;;;;;;;11.83;7.17;;;;;;;6.30;81.59;100302.33;1572754;90;27571;-73
2022/04/20 01:59:21;;;;;;;10.50;8.13;;;;;;;6.28;81.57;100301.17;1516314;94;26037;-74
2022/04/20 02:04:42;;;;;;;10.35;7.25;;;;;;;6.33;82.02;100298.02;1583910;90;26622;-74
2022/04/20 02:07:09;;;;;;;8.85;6.80;;;;;;;6.31;82.13;100297.36;1551439;91;25809;-74
2022/04/20 02:09:37;;;;;;;9.40;7.25;;;;;;;6.32;82.31;100300.33;1574881;90;27706;-74
2022/04/20 02:12:06;;;;;;;9.05;7.97;;;;;;;6.32;82.48;100291.02;1585057;89;25862;-74
2022/04/20 02:14:35;;;;;;;9.18;7.92;;;;;;;6.33;82.49;100282.05;1581777;90;25824;-74
2022/04/20 02:17:04;;;;;;;8.95;7.45;;;;;;;6.33;82.58;100283.38;1594817;88;25936;-74
2022/04/20 02:19:35;;;;;;;10.80;7.80;;;;;;;6.30;82.82;100275.23;1611861;88;26437;-73
2022/04/20 02:22:09;;;;;;;9.33;8.05;;;;;;;6.29;83.08;100277.55;1598394;88;27485;-73
2022/04/20 02:24:35;;;;;;;10.50;8.53;;;;;;;6.24;83.41;100264.75;1565582;91;25923;-73
2022/04/20 02:27:02;;;;;;;12.90;9.60;;;;;;;6.25;83.61;100262.92;1565462;91;25892;-74
2022/04/20 02:29:28;;;;;;;10.25;7.97;;;;;;;6.26;83.83;100257.95;1565617;91;25832;-73
2022/04/20 02:31:56;;;;;;;11.57;8.78;;;;;;;6.27;84.13;100254.77;1546701;91;25394;-73
2022/04/20 02:34:22;;;;;;;9.45;8.15;;;;;;;6.26;84.32;100251.80;1597803;88;28323;-73
2022/04/20 02:36:49;;;;;;;11.18;8.90;;;;;;;6.26;85.00;100254.45;1596389;88;26087;-73
2022/04/20 02:39:15;;;;;;;10.82;8.90;;;;;;;6.24;84.61;100250.64;1583234;88;25789;-73
2022/04/20 02:41:42;;;;;;;11.48;9.48;;;;;;;6.22;85.01;100250.78;1574223;90;26581;-74
2022/04/20 02:44:09;;;;;;;11.35;9.68;;;;;;;6.22;85.22;100250.78;1598120;88;25777;-73
2022/04/20 02:46:35;;;;;;;11.90;8.73;;;;;;;6.22;85.39;100244.14;1599223;87;28309;-73
2022/04/20 02:49:02;;;;;;;10.38;8.93;;;;;;;6.22;85.83;100250.78;1602010;88;25833;-73
2022/04/20 02:51:29;;;;;;;11.68;9.38;;;;;;;6.18;85.89;100244.14;1591468;88;25783;-73
2022/04/20 02:53:55;;;;;;;14.13;10.10;;;;;;;6.16;86.24;100236.00;1599031;87;25821;-73
2022/04/20 02:56:22;;;;;;;12.82;10.23;;;;;;;6.16;86.25;100239.49;1598982;87;25889;-73
2022/04/20 02:58:50;;;;;;;12.37;9.80;;;;;;;6.18;86.63;100234.00;1601305;87;27521;-73
2022/04/20 03:01:17;;;;;;;12.65;9.50;;;;;;;6.15;86.81;100234.35;1599166;87;25866;-73
2022/04/20 03:03:45;;;;;;;10.48;9.25;;;;;;;6.10;87.34;100230.86;1597332;87;25849;-73
2022/04/20 03:06:29;;;;;;;14.97;10.83;;;;;;;6.08;87.36;100230.69;1600319;88;26261;-73
2022/04/20 03:08:57;;;;;;;11.65;9.60;;;;;;;6.05;87.80;100229.19;1582208;88;25835;-73
2022/04/20 03:11:24;;;;;;;12.95;10.28;;;;;;;6.05;87.81;100223.87;1602262;88;27491;-73
2022/04/20 03:13:51;;;;;;;10.15;8.85;;;;;;;6.07;88.12;100222.40;1593892;87;25800;-73
2022/04/20 03:16:19;;;;;;;13.18;9.15;;;;;;;6.05;88.29;100215.09;1600371;87;25759;-73
2022/04/20 03:18:48;;;;;;;9.63;8.40;;;;;;;6.04;88.18;100215.58;1597251;87;25931;-73
2022/04/20 03:21:19;;;;;;;13.35;8.75;;;;;;;6.04;88.95;100218.23;1600451;87;26236;-73
2022/04/20 03:23:46;;;;;;;9.73;8.48;;;;;;;6.04;88.67;100211.59;1600661;87;27503;-73
2022/04/20 03:26:14;;;;;;;10.58;8.83;;;;;;;6.04;88.79;100204.95;1599198;87;25999;-73
2022/04/20 03:28:59;;;;;;;10.43;9.35;;;;;;;6.06;88.85;100204.77;1600686;87;25851;-73
2022/04/20 03:31:25;;;;;;;9.80;8.80;;;;;;;6.08;88.95;100210.26;1603696;88;26524;-73
2022/04/20 03:33:51;;;;;;;8.73;7.80;;;;;;;6.11;89.00;100208.61;1601449;88;25369;-73
2022/04/20 03:36:18;;;;;;;12.00;8.55;;;;;;;6.14;89.11;100203.42;1597391;88;27469;-73
2022/04/20 03:38:44;;;;;;;10.58;8.63;;;;;;;6.13;89.15;100201.29;1603081;88;26585;-73
2022/04/20 03:41:10;;;;;;;8.28;7.42;;;;;;;6.11;89.40;100203.78;1591051;87;25816;-73
2022/04/20 03:43:37;;;;;;;8.33;7.37;;;;;;;6.10;89.53;100200.28;1591083;87;26562;-73
2022/04/20 03:46:05;;;;;;;9.45;8.33;;;;;;;6.09;90.05;100199.94;1602934;87;25790;-73
2022/04/20 03:48:33;;;;;;;8.67;7.80;;;;;;;6.09;89.93;100199.94;1597083;87;28726;-73
2022/04/20 03:50:59;;;;;;;7.97;7.10;;;;;;;6.09;90.23;100202.59;1607430;88;25801;-73
2022/04/20 03:53:25;;;;;;;9.15;7.87;;;;;;;6.08;90.20;100202.77;1586880;88;26529;-73
2022/04/20 03:55:52;;;;;;;8.98;8.08;;;;;;;6.08;90.54;100201.45;1600006;88;25867;-73
2022/04/20 03:58:19;;;;;;;8.38;7.53;;;;;;;6.09;90.70;100193.29;1612028;88;26453;-73
2022/04/20 04:00:45;;;;;;;7.78;6.95;;;;;;;6.09;90.76;100191.96;1599874;88;27523;-73
2022/04/20 04:03:12;;;;;;;8.65;7.42;;;;;;;6.11;90.95;100182.51;1565512;91;26528;-73
2022/04/20 04:05:38;;;;;;;7.92;6.60;;;;;;;6.11;90.89;100181.17;1565976;91;26127;-75
2022/04/20 04:08:10;;;;;;;8.25;7.45;;;;;;;6.10;91.05;100183.49;1560925;91;25972;-73
2022/04/20 04:10:36;;;;;;;6.87;6.17;;;;;;;6.10;91.20;100189.65;1565922;91;25844;-73
2022/04/20 04:13:04;;;;;;;6.65;5.87;;;;;;;6.11;91.87;100186.50;1543528;91;27501;-73
2022/04/20 04:15:33;;;;;;;7.40;5.78;;;;;;;6.12;91.75;100189.47;1585953;87;26521;-73
2022/04/20 04:18:01;;;;;;;7.40;6.65;;;;;;;6.12;92.37;100186.31;1611743;88;26062;-73
2022/04/20 04:20:29;;;;;;;10.58;6.97;;;;;;;6.10;92.14;100186.98;1586515;88;25878;-76
2022/04/20 04:22:57;;;;;;;7.12;6.42;;;;;;;6.10;92.38;100181.67;1604712;88;25793;-76
2022/04/20 04:25:25;;;;;;;7.00;6.10;;;;;;;6.09;92.70;100176.00;1610314;88;27494;-76
2022/04/20 04:27:52;;;;;;;8.58;7.40;;;;;;;6.10;92.72;100173.70;1599163;88;26469;-76
2022/04/20 04:30:20;;;;;;;8.00;7.12;;;;;;;6.10;92.74;100167.05;1611948;88;25838;-76
2022/04/20 04:32:53;;;;;;;6.78;6.08;;;;;;;6.13;92.48;100172.05;1601282;87;26640;-75
2022/04/20 04:35:20;;;;;;;6.92;6.22;;;;;;;6.14;92.72;100175.02;1578003;88;26203;-76
2022/04/20 04:37:47;;;;;;;8.38;6.15;;;;;;;6.16;92.67;100176.16;1585852;88;27684;-75
2022/04/20 04:40:18;;;;;;;7.17;6.17;;;;;;;6.19;92.86;100170.03;1602262;88;25995;-75
2022/04/20 04:42:43;;;;;;;7.03;6.33;;;;;;;6.20;92.73;100178.33;1599371;88;26617;-76
2022/04/20 04:50:42;;;;;;;5.53;5.03;;;;;;;6.23;93.01;100168.69;1565728;91;27565;-76
2022/04/20 04:53:09;;;;;;;6.17;5.08;;;;;;;6.26;93.01;100169.34;1541187;91;25949;-75
2022/04/20 04:55:36;;;;;;;7.85;5.85;;;;;;;6.26;93.29;100167.53;1565588;91;25871;-76
2022/04/20 04:58:03;;;;;;;5.72;4.90;;;;;;;6.27;93.01;100167.00;1565596;91;25870;-75
2022/04/20 05:00:30;;;;;;;5.90;4.85;;;;;;;6.27;93.03;100165.67;1565849;91;25820;-76
2022/04/20 05:03:01;;;;;;;5.45;4.92;;;;;;;6.28;93.03;100164.69;1564320;91;28307;-76
2022/04/20 05:05:28;;;;;;;6.42;4.67;;;;;;;6.26;93.14;100164.87;1541848;91;25937;-76
2022/04/20 05:07:54;;;;;;;5.17;4.12;;;;;;;6.27;93.31;100164.34;1580005;90;25935;-76
2022/04/20 05:10:22;;;;;;;5.35;4.45;;;;;;;6.27;93.29;100163.02;1580085;90;26603;-76
2022/04/20 05:12:49;;;;;;;5.70;4.58;;;;;;;6.27;93.62;100157.69;1578163;90;26123;-76
2022/04/20 05:15:15;;;;;;;6.55;5.22;;;;;;;6.27;93.28;100154.54;1581005;90;27668;-75
2022/04/20 05:17:42;;;;;;;6.25;4.67;;;;;;;6.28;93.37;100150.89;1580454;89;25989;-75
2022/04/20 05:20:10;;;;;;;4.05;3.62;;;;;;;6.30;93.35;100150.22;1584248;90;25876;-76
2022/04/20 05:22:39;;;;;;;5.25;4.33;;;;;;;6.33;93.50;100147.20;1575681;90;26594;-76
2022/04/20 05:25:07;;;;;;;4.78;4.17;;;;;;;6.35;93.34;100147.86;1554766;90;25916;-75
2022/04/20 05:27:34;;;;;;;5.53;4.22;;;;;;;6.36;93.36;100146.04;1589529;90;28391;-75
2022/04/20 05:30:14;;;;;;;5.53;4.15;;;;;;;6.37;93.68;100143.23;1581831;90;25864;-76
2022/04/20 05:32:42;;;;;;;6.05;4.53;;;;;;;6.37;93.62;100142.39;1589745;90;25842;-76
2022/04/20 05:35:10;;;;;;;5.80;4.28;;;;;;;6.38;93.39;100139.55;1583800;90;26345;-76
2022/04/20 05:43:06;;;;;;;4.33;3.80;;;;;;;6.39;93.93;100134.58;1565790;91;25851;-76
2022/04/20 05:45:33;;;;;;;4.95;4.00;;;;;;;6.39;94.25;100129.26;1565498;91;25385;-76
2022/04/20 05:48:01;;;;;;;4.97;3.75;;;;;;;6.39;94.35;100127.93;1598993;88;26575;-76
2022/04/20 05:50:28;;;;;;;5.00;3.20;;;;;;;6.41;93.84;100127.25;1612000;88;25937;-76
2022/04/20 05:52:54;;;;;;;5.05;4.22;;;;;;;6.42;94.37;100128.06;1595700;88;27477;-75
2022/04/20 05:55:21;;;;;;;4.95;3.83;;;;;;;6.42;94.34;100128.06;1594853;88;25926;-76
2022/04/20 05:57:47;;;;;;;6.75;4.10;;;;;;;6.42;94.20;100126.23;1609103;88;25360;-75
2022/04/20 06:00:16;;;;;;;6.20;4.12;;;;;;;6.45;94.65;100119.75;1565819;91;26693;-76
2022/04/20 06:02:43;;;;;;;5.40;4.10;;;;;;;6.46;94.14;100120.09;1565775;91;25885;-76
2022/04/20 06:05:11;;;;;;;6.62;4.40;;;;;;;6.47;94.08;100117.75;1565471;91;27663;-76
2022/04/20 06:07:42;;;;;;;;;;;;;;;6.50;94.08;100118.75;1527505;91;26088;-76
2022/04/20 06:10:16;;;;;;;6.30;4.40;;;;;;;6.51;94.23;100112.41;1580717;90;25779;-76
2022/04/20 06:12:44;;;;;;;6.90;5.28;;;;;;;6.48;94.25;100112.24;1564607;90;26658;-76
2022/04/20 06:15:12;;;;;;;8.33;5.70;;;;;;;6.51;94.00;100109.25;1564798;90;25976;-75
2022/04/20 06:17:52;;;;;;;6.08;5.47;;;;;;;6.55;93.98;100106.57;1539897;88;27587;-76
2022/04/20 06:20:18;;;;;;;6.47;5.25;;;;;;;6.61;93.97;100111.19;1565105;91;25798;-75
2022/04/20 06:22:52;;;;;;;8.28;4.87;;;;;;;6.64;94.16;100106.87;1544419;91;26594;-76
2022/04/20 06:25:20;;;;;;;6.05;5.30;;;;;;;6.64;93.83;100103.38;1562716;91;25788;-76
2022/04/20 06:28:06;;;;;;;9.28;6.78;;;;;;;6.63;93.73;100097.21;1565681;91;25947;-76
2022/04/20 06:30:52;;;;;;;6.78;5.08;;;;;;;6.68;93.85;100098.03;1565669;91;28051;-76
2022/04/20 06:33:38;;;;;;;8.63;5.10;;;;;;;6.70;93.64;100101.34;1503066;94;26800;-76
2022/04/20 06:36:06;;;;;;;6.65;5.55;;;;;;;6.72;93.76;100099.33;1489051;94;26123;-76
2022/04/20 06:38:40;;;;;;;8.15;6.28;;;;;;;6.70;93.83;100099.52;1516304;91;26025;-76
2022/04/20 06:41:08;;;;;;;6.87;5.30;;;;;;;6.68;93.66;100105.52;1605314;88;25808;-76
2022/04/20 06:43:53;;;;;;;8.30;5.78;;;;;;;6.69;93.72;100097.84;1565685;91;28044;-76
2022/04/20 06:46:24;;;;;;;7.95;5.40;;;;;;;6.69;93.78;100098.37;1564109;91;26104;-76
2022/04/20 06:49:09;;;;;;;10.03;6.58;;;;;;;6.68;93.84;100090.04;1565542;91;26514;-76
2022/04/20 06:59:40;;;;;;;7.80;5.50;;;;;;;6.70;93.97;100083.55;1542044;91;26635;-76
2022/04/20 07:02:24;;;;;;;9.65;6.08;;;;;;;6.63;94.63;100087.09;1495815;94;26095;-76
2022/04/20 07:04:52;;;;;;;7.80;5.28;;;;;;;6.60;94.47;100091.42;1541043;91;26047;-75
2022/04/20 07:07:21;;;;;;;8.05;6.15;;;;;;;6.60;94.69;100086.93;1570663;90;26007;-76
2022/04/20 07:09:58;;;;;;;6.80;4.92;;;;;;;6.59;94.57;100080.44;1611451;88;27483;-76
2022/04/20 07:12:35;;;;;;;8.50;4.92;;;;;;;6.58;94.99;100086.77;1600346;88;25593;-74
2022/04/20 07:15:01;;;;;;;8.35;4.92;;;;;;;6.54;95.34;100083.64;1580427;88;25912;-74
2022/04/20 07:17:27;;;;;;;6.60;4.90;;;;;;;6.53;95.00;100073.98;1603778;88;26626;-74
2022/04/20 07:20:04;;;;;;;7.75;4.90;;;;;;;6.53;94.80;100079.31;1585155;88;26629;-74
2022/04/20 07:22:49;;;;;;;6.85;4.78;;;;;;;6.55;94.96;100073.80;1598490;88;28322;-74
2022/04/20 07:25:25;;;;;;;8.08;6.10;;;;;;;6.58;94.88;100070.31;1564969;91;25816;-74
2022/04/20 07:27:53;;;;;;;6.92;5.15;;;;;;;6.60;95.09;100063.48;1563440;91;25918;-74
2022/04/20 07:30:35;;;;;;;8.50;5.55;;;;;;;6.62;95.27;100060.14;1552282;91;25850;-74
2022/04/20 07:33:06;;;;;;;8.60;5.87;;;;;;;6.65;95.43;100063.27;1575753;89;25909;-74
2022/04/20 07:35:34;;;;;;;6.92;4.75;;;;;;;6.71;95.09;100068.41;1590004;89;26973;-74
2022/04/20 07:38:19;;;;;;;9.08;4.90;;;;;;;6.74;95.77;100068.88;1584992;89;26319;-74
2022/04/20 07:41:05;;;;;;;6.22;4.62;;;;;;;6.77;95.66;100068.55;1586157;89;25936;-74
2022/04/20 07:43:49;;;;;;;6.72;4.55;;;;;;;6.82;95.93;100066.16;1489136;95;26682;-74
2022/04/20 07:46:26;;;;;;;5.20;4.20;;;;;;;6.87;96.15;100064.31;1578438;88;25846;-74
2022/04/20 07:48:56;;;;;;;7.58;5.25;;;;;;;6.90;95.66;100059.98;1598008;88;27450;-74
2022/04/20 07:51:24;;;;;;;6.10;4.75;;;;;;;6.92;95.16;100068.13;1599296;88;26121;-74
2022/04/20 07:54:09;;;;;;;6.65;4.95;;;;;;;6.94;95.24;100071.44;1606182;88;25800;-74
2022/04/20 07:56:37;;;;;;;8.38;5.00;;;;;;;6.96;95.02;100063.27;1561711;90;25802;-74
2022/04/20 07:59:17;;;;;;;7.20;5.20;;;;;;;7.01;94.89;100055.59;1590441;88;25882;-74
2022/04/20 08:01:46;;;;;;;6.80;5.42;;;;;;;7.08;95.93;100046.39;1530300;91;26927;-75
2022/04/20 08:04:16;;;;;;;7.22;5.40;;;;;;;7.14;95.70;100052.33;1562395;90;25947;-74
2022/04/20 08:06:46;;;;;;;9.05;5.87;;;;;;;7.19;95.34;100044.12;1564403;91;25886;-74
2022/04/20 08:09:12;;;;;;;9.48;5.53;;;;;;;7.27;95.79;100038.72;1590303;90;26302;-74
2022/04/20 08:11:38;;;;;;;8.08;5.17;;;;;;;7.34;95.49;100048.99;1581136;90;25986;-74
2022/04/20 08:14:11;;;;;;;6.80;4.83;;;;;;;7.41;95.83;100038.45;1568793;90;27527;-74
2022/04/20 08:16:57;;;;;;;5.80;5.00;;;;;;;7.48;95.38;100036.73;1544660;90;26519;-74
2022/04/20 08:19:23;;;;;;;8.08;5.08;;;;;;;7.55;95.25;100027.81;1570515;90;26379;-74
2022/04/20 08:22:10;;;;;;;7.83;5.60;;;;;;;7.57;95.14;100038.31;1580377;90;26003;-74
2022/04/20 08:24:36;;;;;;;7.80;5.37;;;;;;;7.59;94.65;100045.09;1571565;90;25848;-75
2022/04/20 08:27:02;;;;;;;6.03;4.20;;;;;;;7.61;94.25;100050.27;1570786;90;28529;-74
2022/04/20 08:29:28;;;;;;;6.50;4.50;;;;;;;7.61;93.96;100047.07;1580785;90;26005;-74
2022/04/20 08:31:55;;;;;;;9.33;4.80;;;;;;;7.60;93.75;100051.27;1586383;90;26011;-74
2022/04/20 08:34:21;;;;;;;4.90;4.00;;;;;;;7.57;92.99;100047.64;1579406;90;25861;-74
2022/04/20 08:36:47;;;;;;;4.90;4.12;;;;;;;7.55;93.01;100049.63;1577598;90;25877;-74
2022/04/20 08:39:13;;;;;;;9.15;5.95;;;;;;;7.52;92.99;100054.00;1580463;90;27488;-74
2022/04/20 08:41:41;;;;;;;5.67;4.72;;;;;;;7.50;92.95;100043.53;1569626;90;25410;-75
2022/04/20 08:44:11;;;;;;;6.62;4.55;;;;;;;7.54;93.09;100040.00;1585956;90;25875;-74
2022/04/20 08:46:40;;;;;;;5.20;4.20;;;;;;;7.56;92.70;100040.64;1586224;88;26589;-74
2022/04/20 08:49:07;;;;;;;6.58;4.60;;;;;;;7.58;92.30;100037.28;1583413;90;26341;-74
2022/04/20 08:54:19;;;;;;;8.85;4.75;;;;;;;7.56;92.54;100031.31;1586950;90;26078;-74
2022/04/20 08:59:33;;;;;;;7.37;4.30;;;;;;;7.58;92.29;100035.45;1586908;90;26448;-74
2022/04/20 09:02:00;;;;;;;4.67;3.70;;;;;;;7.59;92.69;100034.96;1586460;90;26123;-74
2022/04/20 09:04:28;;;;;;;6.45;4.95;;;;;;;7.59;92.32;100033.63;1585619;90;27472;-74
2022/04/20 09:06:54;;;;;;;5.65;4.03;;;;;;;7.55;91.52;100033.14;1610910;87;25834;-74
2022/04/20 09:09:28;;;;;;;5.45;4.45;;;;;;;7.52;91.79;100033.52;1611503;87;26004;-74
2022/04/20 09:11:51;;;;;;;6.17;4.62;;;;;;;7.53;91.92;100035.16;1615564;87;25799;-74
2022/04/20 09:14:17;;;;;;;5.17;4.55;;;;;;;7.56;92.01;100036.64;1595405;87;25830;-74
2022/04/20 09:16:43;;;;;;;6.33;4.80;;;;;;;7.58;92.45;100046.12;1593586;87;27493;-74
2022/04/20 09:19:11;;;;;;;6.05;4.85;;;;;;;7.58;92.16;100039.45;1603714;88;25901;-75
2022/04/20 09:21:37;;;;;;;5.28;4.70;;;;;;;7.62;92.50;100039.91;1603502;88;25942;-74
2022/04/20 09:24:09;;;;;;;6.12;5.12;;;;;;;7.63;91.88;100042.39;1599878;88;26509;-74
2022/04/20 09:26:52;;;;;;;5.78;4.72;;;;;;;7.62;91.47;100042.08;1597144;87;25498;-74
2022/04/20 09:29:18;;;;;;;8.53;4.72;;;;;;;7.64;91.63;100056.05;1598584;87;28708;-74
2022/04/20 09:31:48;;;;;;;6.17;5.58;;;;;;;7.61;91.81;100052.41;1595939;87;25943;-74
2022/04/20 09:37:23;;;;;;;6.65;4.53;;;;;;;7.64;91.74;100062.72;1595401;88;26380;-74
2022/04/20 09:39:51;;;;;;;6.17;4.80;;;;;;;7.66;91.89;100062.03;1599321;88;26035;-74
2022/04/20 09:42:19;;;;;;;6.12;4.75;;;;;;;7.67;91.73;100061.03;1565448;91;27633;-74
2022/04/20 09:44:59;;;;;;;12.53;5.45;;;;;;;7.69;91.99;100063.02;1565325;91;26040;-74
2022/04/20 09:50:23;;;;;;;6.15;5.53;;;;;;;7.70;91.24;100061.15;1601577;88;26049;-74
2022/04/20 09:53:00;;;;;;;7.33;5.67;;;;;;;7.73;91.93;100053.64;1612403;88;25869;-74
2022/04/20 09:55:35;;;;;;;10.28;6.00;;;;;;;7.79;91.70;100060.07;1611713;88;27499;-74
2022/04/20 09:58:18;;;;;;;7.17;5.75;;;;;;;7.86;91.65;100063.67;1606963;88;26158;-74
2022/04/20 10:00:50;;;;;;;8.30;6.12;;;;;;;7.92;91.96;100068.77;1594875;88;25837;-75
2022/04/20 10:03:28;;;;;;;6.67;5.60;;;;;;;7.94;91.17;100066.25;1575845;90;25877;-74
2022/04/20 10:06:00;;;;;;;7.75;6.37;;;;;;;7.92;90.48;100068.77;1590173;88;25815;-74
2022/04/20 10:08:25;;;;;;;8.43;6.22;;;;;;;7.92;90.69;100068.27;1600837;88;27569;-74
2022/04/20 10:10:54;;;;;;;9.25;6.47;;;;;;;7.96;90.70;100069.56;1602686;88;25939;-74
2022/04/20 10:13:22;;;;;;;8.50;6.17;;;;;;;8.02;90.98;100072.82;1601460;88;25955;-74
2022/04/20 10:16:05;;;;;;;9.38;6.35;;;;;;;8.10;91.03;100073.26;1618481;88;53737;-74
2022/04/20 10:18:39;;;;;;;7.92;5.72;;;;;;;8.15;90.44;100077.02;1608154;88;25818;-74
2022/04/20 10:21:11;;;;;;;9.30;6.67;;;;;;;8.20;90.26;100089.31;1609264;89;27504;-74
2022/04/20 10:23:44;;;;;;;;;;;;;;;8.22;89.87;100092.63;1611840;89;26645;-74
2022/04/20 10:26:11;;;;;;;9.43;5.55;;;;;;;8.23;90.07;100096.12;1575152;88;26361;-74
2022/04/20 10:28:49;;;;;;;12.03;6.20;;;;;;;8.20;89.88;100091.14;1592371;88;26356;-74
2022/04/20 10:31:20;;;;;;;8.15;6.05;;;;;;;8.23;89.62;100089.45;1602492;88;25874;-74
2022/04/20 10:33:49;;;;;;;7.53;6.40;;;;;;;8.25;89.38;100086.96;1579334;88;27573;-73
2022/04/20 10:36:30;;;;;;;8.25;6.80;;;;;;;8.32;89.70;100083.02;1594242;88;26600;-74
2022/04/20 10:39:22;;;;;;;9.60;7.15;;;;;;;8.42;89.68;100079.09;1609095;88;25880;-74
2022/04/20 10:42:16;;;;;;;9.23;6.12;;;;;;;8.52;89.74;100077.45;1586245;87;26532;-74
2022/04/20 10:45:04;;;;;;;8.80;6.03;;;;;;;8.60;89.37;100080.54;1601915;88;25841;-74
2022/04/20 10:47:42;;;;;;;10.55;6.50;;;;;;;8.65;88.65;100086.96;1601403;88;27499;-74
2022/04/20 10:50:21;;;;;;;10.58;7.22;;;;;;;8.68;88.90;100096.45;1592547;88;26024;-74
2022/04/20 10:53:03;;;;;;;7.65;6.20;;;;;;;8.72;89.08;100097.72;1601345;88;26542;-74
2022/04/20 10:55:41;;;;;;;8.70;6.37;;;;;;;8.76;88.80;100097.67;1603221;88;25993;-74
2022/04/20 10:58:21;;;;;;;10.15;6.78;;;;;;;8.77;88.46;100096.14;1595384;88;26645;-74
2022/04/20 11:01:08;;;;;;;10.55;7.03;;;;;;;8.79;88.43;100099.98;1565913;91;27463;-74
2022/04/20 11:04:07;;;;;;;7.33;6.17;;;;;;;8.80;88.20;100097.61;1565269;91;26537;-73
2022/04/20 11:07:03;;;;;;;6.72;5.65;;;;;;;8.80;87.81;100097.11;1585107;90;25950;-75
2022/04/20 11:09:49;;;;;;;9.75;6.97;;;;;;;8.76;87.87;100099.00;1568486;90;25954;-75
2022/04/20 11:21:10;;;;;;;7.47;6.28;;;;;;;8.87;87.41;100091.84;1583953;90;26019;-74
2022/04/20 11:23:58;;;;;;;10.48;6.97;;;;;;;8.87;87.06;100088.67;1605455;88;26649;-74
2022/04/20 11:26:32;;;;;;;10.53;6.22;;;;;;;8.90;86.74;100088.78;1565803;91;26369;-74
2022/04/20 11:29:22;;;;;;;13.25;7.20;;;;;;;8.97;86.67;100084.35;1565616;91;27517;-74
2022/04/20 11:31:59;;;;;;;9.03;6.47;;;;;;;8.99;86.69;100085.83;1565496;91;25882;-74
2022/04/20 11:34:28;;;;;;;9.03;7.12;;;;;;;8.98;85.96;100090.03;1564866;91;25792;-74
2022/04/20 11:36:58;;;;;;;8.05;6.50;;;;;;;8.94;85.86;100095.43;1541254;91;26442;-74
2022/04/20 11:39:27;;;;;;;7.85;6.30;;;;;;;8.94;86.17;100094.09;1579969;89;25761;-74
2022/04/20 11:42:03;;;;;;;9.25;6.92;;;;;;;8.96;86.00;100088.05;1579024;90;27583;-74
2022/04/20 11:44:39;;;;;;;9.05;6.05;;;;;;;9.00;85.78;100093.34;1579938;90;26301;-74
2022/04/20 11:47:10;;;;;;;8.83;5.78;;;;;;;8.98;85.20;100092.16;1580293;90;26033;-74
2022/04/20 11:49:44;;;;;;;9.90;6.83;;;;;;;9.00;85.40;100090.13;1579539;90;26065;-74
2022/04/20 11:52:14;;;;;;;8.15;5.72;;;;;;;9.03;85.70;100087.09;1557226;90;25992;-74
2022/04/20 11:54:46;;;;;;;9.08;6.78;;;;;;;9.08;85.72;100090.54;1555148;90;28477;-74
2022/04/20 11:57:16;;;;;;;9.70;6.87;;;;;;;9.08;85.10;100090.04;1576027;90;26542;-74
2022/04/20 11:59:51;;;;;;;8.43;6.30;;;;;;;9.11;85.43;100087.50;1579654;90;25774;-74
2022/04/20 12:02:19;;;;;;;10.65;7.05;;;;;;;9.13;85.37;100091.61;1582000;90;25856;-74
2022/04/20 12:04:48;;;;;;;7.30;5.72;;;;;;;9.13;85.59;100088.14;1589254;89;26020;-74
2022/04/20 12:07:16;;;;;;;10.50;6.47;;;;;;;9.14;85.13;100096.45;1581197;90;28377;-75
2022/04/20 12:09:45;;;;;;;9.78;8.03;;;;;;;9.14;85.17;100099.13;1578294;90;25955;-74
2022/04/20 12:12:13;;;;;;;17.10;10.15;;;;;;;9.14;85.02;100095.95;1575741;90;25875;-74
2022/04/20 12:14:40;;;;;;;14.00;12.15;;;;;;;9.15;85.20;100086.91;1566022;90;26587;-74
2022/04/20 12:17:14;;;;;;;13.43;8.95;;;;;;;9.17;85.02;100090.75;1573120;90;25794;-75
2022/04/20 12:19:42;;;;;;;9.93;8.45;;;;;;;9.19;84.87;100090.05;1590024;90;28316;-75
2022/04/20 12:22:15;;;;;;;15.88;12.30;;;;;;;9.22;85.03;100094.49;1584380;89;26265;-75
2022/04/20 12:24:42;;;;;;;12.82;9.20;;;;;;;9.24;85.17;100084.94;1559635;90;25412;-76
2022/04/20 12:27:22;;;;;;;11.88;8.80;;;;;;;9.27;85.31;100081.89;1575113;90;25836;-74
2022/04/20 12:29:55;;;;;;;10.95;8.38;;;;;;;9.28;85.19;100079.02;1578742;90;25941;-74
2022/04/20 12:32:33;;;;;;;9.60;7.40;;;;;;;9.32;85.06;100084.84;1582167;90;27479;-75